sensor_id;sensor_type;location;lat;lon;timestamp;pressure;altitude;pressure_sealevel;temperature;humidity
43818;BME280;29868;47.360;18.984;2023-02-12T00:01:47;101585.94;;;4.61;100.00
43818;BME280;29868;47.360;18.984;2023-02-12T00:04:13;101591.63;;;4.56;100.00
43818;BME280;29868;47.360;18.984;2023-02-12T00:06:38;101586.97;;;4.50;100.00
43818;BME280;29868;47.360;18.984;2023-02-12T00:09:04;101583.78;;;4.54;100.00
43818;BME280;29868;47.360;18.984;2023-02-12T00:11:30;101581.22;;;4.54;100.00
43818;BME280;29868;47.360;18.984;2023-02-12T00:13:56;101581.50;;;4.59;100.00
43818;BME280;29868;47.360;18.984;2023-02-12T00:16:26;101585.78;;;4.58;100.00
43818;BME280;29868;47.360;18.984;2023-02-12T00:18:54;101596.94;;;4.59;100.00
43818;BME280;29868;47.360;18.984;2023-02-12T00:21:20;101593.38;;;4.57;100.00
43818;BME280;29868;47.360;18.984;2023-02-12T00:23:46;101603.22;;;4.49;100.00
43818;BME280;29868;47.360;18.984;2023-02-12T00:26:14;101603.03;;;4.46;100.00
43818;BME280;29868;47.360;18.984;2023-02-12T00:28:40;101609.88;;;4.46;100.00
43818;BME280;29868;47.360;18.984;2023-02-12T00:31:17;101608.72;;;4.41;100.00
43818;BME280;29868;47.360;18.984;2023-02-12T00:33:43;101622.06;;;4.35;100.00
43818;BME280;29868;47.360;18.984;2023-02-12T00:36:15;101624.03;;;4.39;100.00
43818;BME280;29868;47.360;18.984;2023-02-12T00:38:41;101617.69;;;4.47;100.00
43818;BME280;29868;47.360;18.984;2023-02-12T00:41:07;101611.81;;;4.50;100.00
43818;BME280;29868;47.360;18.984;2023-02-12T00:43:32;101590.53;;;4.52;100.00
43818;BME280;29868;47.360;18.984;2023-02-12T00:45:58;101597.66;;;4.56;100.00
43818;BME280;29868;47.360;18.984;2023-02-12T00:48:23;101590.34;;;4.49;100.00
43818;BME280;29868;47.360;18.984;2023-02-12T00:50:49;101592.31;;;4.53;100.00
43818;BME280;29868;47.360;18.984;2023-02-12T00:53:15;101589.75;;;4.53;100.00
43818;BME280;29868;47.360;18.984;2023-02-12T00:55:41;101586.66;;;4.59;100.00
43818;BME280;29868;47.360;18.984;2023-02-12T00:58:06;101576.44;;;4.60;100.00
43818;BME280;29868;47.360;18.984;2023-02-12T01:00:32;101584.16;;;4.60;100.00
43818;BME280;29868;47.360;18.984;2023-02-12T01:02:57;101585.03;;;4.61;100.00
43818;BME280;29868;47.360;18.984;2023-02-12T01:05:23;101591.25;;;4.64;100.00
43818;BME280;29868;47.360;18.984;2023-02-12T01:07:49;101590.19;;;4.61;100.00
43818;BME280;29868;47.360;18.984;2023-02-12T01:10:15;101590.72;;;4.55;100.00
43818;BME280;29868;47.360;18.984;2023-02-12T01:12:41;101594.38;;;4.59;100.00
43818;BME280;29868;47.360;18.984;2023-02-12T01:15:07;101609.97;;;4.62;100.00
43818;BME280;29868;47.360;18.984;2023-02-12T01:17:35;101605.91;;;4.66;100.00
43818;BME280;29868;47.360;18.984;2023-02-12T01:20:00;101604.94;;;4.63;100.00
43818;BME280;29868;47.360;18.984;2023-02-12T01:22:26;101604.75;;;4.60;100.00
43818;BME280;29868;47.360;18.984;2023-02-12T01:24:51;101593.38;;;4.57;100.00
43818;BME280;29868;47.360;18.984;2023-02-12T01:27:17;101594.25;;;4.57;100.00
43818;BME280;29868;47.360;18.984;2023-02-12T01:29:42;101602.00;;;4.57;100.00
43818;BME280;29868;47.360;18.984;2023-02-12T01:32:09;101596.31;;;4.48;100.00
43818;BME280;29868;47.360;18.984;2023-02-12T01:34:36;101596.66;;;4.39;100.00
43818;BME280;29868;47.360;18.984;2023-02-12T01:37:01;101589.81;;;4.40;100.00
43818;BME280;29868;47.360;18.984;2023-02-12T01:39:27;101590.50;;;4.37;100.00
43818;BME280;29868;47.360;18.984;2023-02-12T01:41:52;101585.72;;;4.29;100.00
43818;BME280;29868;47.360;18.984;2023-02-12T01:44:20;101576.66;;;4.35;100.00
43818;BME280;29868;47.360;18.984;2023-02-12T01:46:48;101580.16;;;4.36;100.00
43818;BME280;29868;47.360;18.984;2023-02-12T01:49:18;101575.63;;;4.32;100.00
43818;BME280;29868;47.360;18.984;2023-02-12T01:51:47;101557.16;;;4.39;100.00
43818;BME280;29868;47.360;18.984;2023-02-12T01:54:16;101574.53;;;4.43;100.00
43818;BME280;29868;47.360;18.984;2023-02-12T01:56:44;101564.09;;;4.40;100.00
43818;BME280;29868;47.360;18.984;2023-02-12T01:59:10;101568.25;;;4.38;100.00
43818;BME280;29868;47.360;18.984;2023-02-12T02:01:37;101577.38;;;4.33;100.00
43818;BME280;29868;47.360;18.984;2023-02-12T02:04:25;101582.94;;;4.26;100.00
43818;BME280;29868;47.360;18.984;2023-02-12T02:07:00;101581.78;;;4.21;100.00
43818;BME280;29868;47.360;18.984;2023-02-12T02:09:29;101591.50;;;4.11;100.00
43818;BME280;29868;47.360;18.984;2023-02-12T02:11:55;101601.78;;;4.11;100.00
43818;BME280;29868;47.360;18.984;2023-02-12T02:14:39;101588.94;;;4.11;100.00
43818;BME280;29868;47.360;18.984;2023-02-12T02:22:45;101587.66;;;4.05;100.00
43818;BME280;29868;47.360;18.984;2023-02-12T02:28:10;101593.72;;;4.05;100.00
43818;BME280;29868;47.360;18.984;2023-02-12T02:30:46;101593.53;;;4.02;100.00
43818;BME280;29868;47.360;18.984;2023-02-12T02:38:59;101604.34;;;3.83;100.00
43818;BME280;29868;47.360;18.984;2023-02-12T02:41:59;101611.94;;;3.82;100.00
43818;BME280;29868;47.360;18.984;2023-02-12T02:47:16;101615.31;;;3.81;100.00
43818;BME280;29868;47.360;18.984;2023-02-12T02:49:51;101623.22;;;3.84;100.00
43818;BME280;29868;47.360;18.984;2023-02-12T02:52:23;101624.03;;;3.83;100.00
43818;BME280;29868;47.360;18.984;2023-02-12T02:54:57;101634.59;;;3.87;100.00
43818;BME280;29868;47.360;18.984;2023-02-12T02:57:30;101620.44;;;3.94;100.00
43818;BME280;29868;47.360;18.984;2023-02-12T03:00:04;101623.31;;;3.85;100.00
43818;BME280;29868;47.360;18.984;2023-02-12T03:02:36;101630.81;;;3.82;100.00
43818;BME280;29868;47.360;18.984;2023-02-12T03:05:03;101630.72;;;3.81;100.00
43818;BME280;29868;47.360;18.984;2023-02-12T03:07:36;101637.28;;;3.76;100.00
43818;BME280;29868;47.360;18.984;2023-02-12T03:10:26;101637.75;;;3.70;100.00
43818;BME280;29868;47.360;18.984;2023-02-12T03:13:05;101643.97;;;3.74;100.00
43818;BME280;29868;47.360;18.984;2023-02-12T03:15:48;101646.75;;;3.63;100.00
43818;BME280;29868;47.360;18.984;2023-02-12T03:18:20;101651.00;;;3.76;100.00
43818;BME280;29868;47.360;18.984;2023-02-12T03:20:51;101650.53;;;3.69;100.00
43818;BME280;29868;47.360;18.984;2023-02-12T03:23:24;101653.69;;;3.64;100.00
43818;BME280;29868;47.360;18.984;2023-02-12T03:25:56;101660.00;;;3.56;100.00
43818;BME280;29868;47.360;18.984;2023-02-12T03:28:28;101659.50;;;3.62;100.00
43818;BME280;29868;47.360;18.984;2023-02-12T03:34:11;101667.13;;;3.60;100.00
43818;BME280;29868;47.360;18.984;2023-02-12T03:39:53;101680.47;;;3.68;100.00
43818;BME280;29868;47.360;18.984;2023-02-12T03:42:30;101679.38;;;3.64;100.00
43818;BME280;29868;47.360;18.984;2023-02-12T03:47:58;101687.16;;;3.66;100.00
43818;BME280;29868;47.360;18.984;2023-02-12T03:50:35;101686.88;;;3.61;100.00
43818;BME280;29868;47.360;18.984;2023-02-12T03:53:04;101682.91;;;3.66;100.00
43818;BME280;29868;47.360;18.984;2023-02-12T03:55:31;101682.31;;;3.71;100.00
43818;BME280;29868;47.360;18.984;2023-02-12T03:58:01;101678.38;;;3.62;100.00
43818;BME280;29868;47.360;18.984;2023-02-12T04:00:27;101688.56;;;3.61;100.00
43818;BME280;29868;47.360;18.984;2023-02-12T04:02:53;101704.06;;;3.49;100.00
43818;BME280;29868;47.360;18.984;2023-02-12T04:05:26;101694.69;;;3.50;100.00
43818;BME280;29868;47.360;18.984;2023-02-12T04:07:54;101699.13;;;3.52;100.00
43818;BME280;29868;47.360;18.984;2023-02-12T04:10:26;101708.25;;;3.60;100.00
43818;BME280;29868;47.360;18.984;2023-02-12T04:13:44;101717.91;;;3.51;100.00
43818;BME280;29868;47.360;18.984;2023-02-12T04:16:24;101728.28;;;3.53;100.00
43818;BME280;29868;47.360;18.984;2023-02-12T04:18:53;101731.31;;;3.47;100.00
43818;BME280;29868;47.360;18.984;2023-02-12T04:24:27;101735.25;;;3.29;100.00
43818;BME280;29868;47.360;18.984;2023-02-12T04:32:04;101753.38;;;2.68;100.00
43818;BME280;29868;47.360;18.984;2023-02-12T04:34:55;101757.78;;;2.58;100.00
43818;BME280;29868;47.360;18.984;2023-02-12T04:37:26;101749.56;;;2.50;100.00
43818;BME280;29868;47.360;18.984;2023-02-12T04:39:53;101748.88;;;2.41;100.00
43818;BME280;29868;47.360;18.984;2023-02-12T04:42:19;101754.53;;;2.60;100.00
43818;BME280;29868;47.360;18.984;2023-02-12T04:44:46;101750.31;;;2.49;100.00
43818;BME280;29868;47.360;18.984;2023-02-12T04:47:13;101756.34;;;2.38;100.00
43818;BME280;29868;47.360;18.984;2023-02-12T04:49:39;101763.03;;;2.48;100.00
43818;BME280;29868;47.360;18.984;2023-02-12T04:52:05;101758.75;;;2.60;100.00
43818;BME280;29868;47.360;18.984;2023-02-12T04:54:31;101761.50;;;2.75;100.00
43818;BME280;29868;47.360;18.984;2023-02-12T04:56:56;101763.25;;;3.12;100.00
43818;BME280;29868;47.360;18.984;2023-02-12T04:59:22;101769.91;;;3.22;100.00
43818;BME280;29868;47.360;18.984;2023-02-12T05:01:47;101773.81;;;3.17;100.00
43818;BME280;29868;47.360;18.984;2023-02-12T05:04:15;101777.38;;;2.94;100.00
43818;BME280;29868;47.360;18.984;2023-02-12T05:06:42;101796.84;;;2.79;100.00
43818;BME280;29868;47.360;18.984;2023-02-12T05:09:12;101792.56;;;2.91;100.00
43818;BME280;29868;47.360;18.984;2023-02-12T05:11:38;101802.03;;;3.04;100.00
43818;BME280;29868;47.360;18.984;2023-02-12T05:14:03;101803.72;;;3.03;100.00
43818;BME280;29868;47.360;18.984;2023-02-12T05:16:29;101811.00;;;3.10;100.00
43818;BME280;29868;47.360;18.984;2023-02-12T05:18:54;101826.81;;;3.03;100.00
43818;BME280;29868;47.360;18.984;2023-02-12T05:21:19;101828.72;;;2.94;100.00
43818;BME280;29868;47.360;18.984;2023-02-12T05:23:45;101821.34;;;2.99;100.00
43818;BME280;29868;47.360;18.984;2023-02-12T05:26:16;101823.66;;;3.07;100.00
43818;BME280;29868;47.360;18.984;2023-02-12T05:28:42;101833.50;;;3.01;100.00
43818;BME280;29868;47.360;18.984;2023-02-12T05:31:14;101834.06;;;2.97;100.00
43818;BME280;29868;47.360;18.984;2023-02-12T05:33:42;101841.47;;;2.92;100.00
43818;BME280;29868;47.360;18.984;2023-02-12T05:36:10;101833.44;;;2.88;100.00
43818;BME280;29868;47.360;18.984;2023-02-12T05:38:36;101836.78;;;2.87;100.00
43818;BME280;29868;47.360;18.984;2023-02-12T05:41:08;101825.66;;;2.75;100.00
43818;BME280;29868;47.360;18.984;2023-02-12T05:43:34;101825.59;;;2.61;100.00
43818;BME280;29868;47.360;18.984;2023-02-12T05:46:01;101833.97;;;2.47;100.00
43818;BME280;29868;47.360;18.984;2023-02-12T05:48:28;101836.31;;;2.21;100.00
43818;BME280;29868;47.360;18.984;2023-02-12T05:50:54;101840.88;;;2.13;100.00
43818;BME280;29868;47.360;18.984;2023-02-12T05:53:19;101844.66;;;1.94;100.00
43818;BME280;29868;47.360;18.984;2023-02-12T05:55:45;101857.81;;;1.99;100.00
43818;BME280;29868;47.360;18.984;2023-02-12T05:58:10;101860.94;;;2.07;100.00
43818;BME280;29868;47.360;18.984;2023-02-12T06:00:36;101873.19;;;1.99;100.00
43818;BME280;29868;47.360;18.984;2023-02-12T06:03:01;101870.72;;;1.89;100.00
43818;BME280;29868;47.360;18.984;2023-02-12T06:05:27;101869.06;;;2.01;100.00
43818;BME280;29868;47.360;18.984;2023-02-12T06:07:52;101877.84;;;1.93;100.00
43818;BME280;29868;47.360;18.984;2023-02-12T06:10:18;101873.09;;;2.09;100.00
43818;BME280;29868;47.360;18.984;2023-02-12T06:12:43;101885.38;;;2.37;100.00
43818;BME280;29868;47.360;18.984;2023-02-12T06:15:08;101885.13;;;2.57;100.00
43818;BME280;29868;47.360;18.984;2023-02-12T06:17:34;101894.84;;;2.61;100.00
43818;BME280;29868;47.360;18.984;2023-02-12T06:20:00;101898.31;;;2.50;100.00
43818;BME280;29868;47.360;18.984;2023-02-12T06:22:27;101895.72;;;2.38;100.00
43818;BME280;29868;47.360;18.984;2023-02-12T06:24:52;101896.50;;;2.26;100.00
43818;BME280;29868;47.360;18.984;2023-02-12T06:27:18;101906.44;;;2.21;100.00
43818;BME280;29868;47.360;18.984;2023-02-12T06:29:43;101905.31;;;2.17;100.00
43818;BME280;29868;47.360;18.984;2023-02-12T06:32:09;101897.94;;;2.10;100.00
43818;BME280;29868;47.360;18.984;2023-02-12T06:34:37;101903.94;;;1.99;100.00
43818;BME280;29868;47.360;18.984;2023-02-12T06:37:03;101912.28;;;2.08;100.00
43818;BME280;29868;47.360;18.984;2023-02-12T06:39:28;101913.91;;;2.41;100.00
43818;BME280;29868;47.360;18.984;2023-02-12T06:41:54;101911.22;;;2.63;100.00
43818;BME280;29868;47.360;18.984;2023-02-12T06:44:19;101902.31;;;2.58;100.00
43818;BME280;29868;47.360;18.984;2023-02-12T06:46:44;101913.34;;;2.57;100.00
43818;BME280;29868;47.360;18.984;2023-02-12T06:49:11;101917.03;;;2.49;100.00
43818;BME280;29868;47.360;18.984;2023-02-12T06:51:38;101918.91;;;2.75;100.00
43818;BME280;29868;47.360;18.984;2023-02-12T06:54:11;101922.81;;;2.82;100.00
43818;BME280;29868;47.360;18.984;2023-02-12T06:56:38;101929.13;;;3.10;100.00
43818;BME280;29868;47.360;18.984;2023-02-12T06:59:03;101929.56;;;3.16;100.00
43818;BME280;29868;47.360;18.984;2023-02-12T07:01:29;101944.53;;;3.22;100.00
43818;BME280;29868;47.360;18.984;2023-02-12T07:03:57;101950.72;;;3.26;100.00
43818;BME280;29868;47.360;18.984;2023-02-12T07:06:24;101954.59;;;3.44;100.00
43818;BME280;29868;47.360;18.984;2023-02-12T07:08:50;101955.63;;;3.46;100.00
43818;BME280;29868;47.360;18.984;2023-02-12T07:11:16;101952.81;;;3.80;100.00
43818;BME280;29868;47.360;18.984;2023-02-12T07:13:42;101962.88;;;3.77;100.00
43818;BME280;29868;47.360;18.984;2023-02-12T07:16:13;101971.16;;;3.73;100.00
43818;BME280;29868;47.360;18.984;2023-02-12T07:18:39;101977.50;;;4.03;100.00
43818;BME280;29868;47.360;18.984;2023-02-12T07:21:06;101978.41;;;4.17;100.00
43818;BME280;29868;47.360;18.984;2023-02-12T07:23:32;101981.41;;;4.23;100.00
43818;BME280;29868;47.360;18.984;2023-02-12T07:26:06;101982.22;;;4.22;100.00
43818;BME280;29868;47.360;18.984;2023-02-12T07:28:32;101986.97;;;4.29;100.00
43818;BME280;29868;47.360;18.984;2023-02-12T07:30:59;101989.41;;;4.27;100.00
43818;BME280;29868;47.360;18.984;2023-02-12T07:33:25;101999.94;;;4.30;100.00
43818;BME280;29868;47.360;18.984;2023-02-12T07:35:50;101997.88;;;4.38;100.00
43818;BME280;29868;47.360;18.984;2023-02-12T07:38:16;101995.94;;;4.60;100.00
43818;BME280;29868;47.360;18.984;2023-02-12T07:40:41;101999.69;;;4.66;100.00
43818;BME280;29868;47.360;18.984;2023-02-12T07:43:06;102002.75;;;4.73;100.00
43818;BME280;29868;47.360;18.984;2023-02-12T07:45:32;102001.59;;;4.81;100.00
43818;BME280;29868;47.360;18.984;2023-02-12T07:47:57;102012.59;;;5.05;100.00
43818;BME280;29868;47.360;18.984;2023-02-12T07:50:23;102020.13;;;5.16;100.00
43818;BME280;29868;47.360;18.984;2023-02-12T07:52:50;102016.34;;;5.24;100.00
43818;BME280;29868;47.360;18.984;2023-02-12T07:55:15;102026.81;;;5.40;100.00
43818;BME280;29868;47.360;18.984;2023-02-12T07:57:41;102033.94;;;5.44;100.00
43818;BME280;29868;47.360;18.984;2023-02-12T08:00:07;102035.13;;;5.49;100.00
43818;BME280;29868;47.360;18.984;2023-02-12T08:02:33;102028.25;;;5.63;100.00
43818;BME280;29868;47.360;18.984;2023-02-12T08:04:58;102023.84;;;5.75;100.00
43818;BME280;29868;47.360;18.984;2023-02-12T08:07:24;102020.16;;;5.85;100.00
43818;BME280;29868;47.360;18.984;2023-02-12T08:09:49;102028.47;;;5.94;100.00
43818;BME280;29868;47.360;18.984;2023-02-12T08:12:16;102033.41;;;6.04;100.00
43818;BME280;29868;47.360;18.984;2023-02-12T08:14:41;102033.59;;;6.07;100.00
43818;BME280;29868;47.360;18.984;2023-02-12T08:17:07;102035.66;;;6.28;100.00
43818;BME280;29868;47.360;18.984;2023-02-12T08:19:33;102036.56;;;6.28;100.00
43818;BME280;29868;47.360;18.984;2023-02-12T08:21:59;102033.53;;;6.36;100.00
43818;BME280;29868;47.360;18.984;2023-02-12T08:24:27;102039.59;;;6.36;100.00
43818;BME280;29868;47.360;18.984;2023-02-12T08:26:53;102048.72;;;6.44;100.00
43818;BME280;29868;47.360;18.984;2023-02-12T08:29:22;102049.06;;;6.50;100.00
43818;BME280;29868;47.360;18.984;2023-02-12T08:31:51;102052.19;;;6.60;100.00
43818;BME280;29868;47.360;18.984;2023-02-12T08:34:21;102057.63;;;6.79;100.00
43818;BME280;29868;47.360;18.984;2023-02-12T08:36:48;102056.19;;;6.84;100.00
43818;BME280;29868;47.360;18.984;2023-02-12T08:39:16;102070.63;;;6.80;100.00
43818;BME280;29868;47.360;18.984;2023-02-12T08:41:42;102059.41;;;6.95;100.00
43818;BME280;29868;47.360;18.984;2023-02-12T08:44:09;102062.94;;;6.97;100.00
43818;BME280;29868;47.360;18.984;2023-02-12T08:46:37;102063.47;;;7.06;100.00
43818;BME280;29868;47.360;18.984;2023-02-12T08:49:04;102059.19;;;7.21;100.00
43818;BME280;29868;47.360;18.984;2023-02-12T08:51:35;102059.53;;;7.27;100.00
43818;BME280;29868;47.360;18.984;2023-02-12T08:54:05;102073.03;;;7.38;100.00
43818;BME280;29868;47.360;18.984;2023-02-12T08:56:32;102071.94;;;7.49;100.00
43818;BME280;29868;47.360;18.984;2023-02-12T08:58:59;102074.81;;;7.54;100.00
43818;BME280;29868;47.360;18.984;2023-02-12T09:01:28;102072.47;;;7.59;100.00
43818;BME280;29868;47.360;18.984;2023-02-12T09:03:54;102078.34;;;7.56;100.00
43818;BME280;29868;47.360;18.984;2023-02-12T09:06:21;102083.47;;;7.71;100.00
43818;BME280;29868;47.360;18.984;2023-02-12T09:08:48;102090.94;;;7.81;100.00
43818;BME280;29868;47.360;18.984;2023-02-12T09:11:18;102091.88;;;7.67;100.00
43818;BME280;29868;47.360;18.984;2023-02-12T09:13:46;102095.72;;;7.90;100.00
43818;BME280;29868;47.360;18.984;2023-02-12T09:16:12;102094.53;;;7.99;100.00
43818;BME280;29868;47.360;18.984;2023-02-12T09:18:39;102095.91;;;8.09;100.00
43818;BME280;29868;47.360;18.984;2023-02-12T09:21:10;102107.78;;;8.22;100.00
43818;BME280;29868;47.360;18.984;2023-02-12T09:23:36;102113.22;;;8.26;100.00
43818;BME280;29868;47.360;18.984;2023-02-12T09:26:07;102106.50;;;8.30;100.00
43818;BME280;29868;47.360;18.984;2023-02-12T09:28:33;102109.19;;;8.48;100.00
43818;BME280;29868;47.360;18.984;2023-02-12T09:31:06;102113.16;;;8.58;100.00
43818;BME280;29868;47.360;18.984;2023-02-12T09:33:32;102107.31;;;8.62;100.00
43818;BME280;29868;47.360;18.984;2023-02-12T09:36:09;102108.78;;;8.57;100.00
43818;BME280;29868;47.360;18.984;2023-02-12T09:38:35;102114.09;;;8.60;100.00
43818;BME280;29868;47.360;18.984;2023-02-12T09:43:56;102126.34;;;8.96;100.00
43818;BME280;29868;47.360;18.984;2023-02-12T09:46:29;102120.81;;;9.07;100.00
43818;BME280;29868;47.360;18.984;2023-02-12T09:51:30;102123.47;;;9.08;100.00
43818;BME280;29868;47.360;18.984;2023-02-12T09:54:05;102128.63;;;9.24;100.00
43818;BME280;29868;47.360;18.984;2023-02-12T09:56:33;102130.78;;;9.33;100.00
43818;BME280;29868;47.360;18.984;2023-02-12T09:59:03;102126.50;;;8.99;100.00
43818;BME280;29868;47.360;18.984;2023-02-12T10:01:29;102133.44;;;9.17;100.00
43818;BME280;29868;47.360;18.984;2023-02-12T10:03:54;102136.13;;;9.36;100.00
43818;BME280;29868;47.360;18.984;2023-02-12T10:06:24;102140.69;;;9.24;100.00
43818;BME280;29868;47.360;18.984;2023-02-12T10:08:58;102141.00;;;9.30;100.00
43818;BME280;29868;47.360;18.984;2023-02-12T10:14:17;102138.84;;;9.21;100.00
43818;BME280;29868;47.360;18.984;2023-02-12T10:20:06;102143.31;;;9.60;100.00
43818;BME280;29868;47.360;18.984;2023-02-12T10:22:58;102148.34;;;9.57;100.00
43818;BME280;29868;47.360;18.984;2023-02-12T10:25:44;102146.63;;;9.75;100.00
43818;BME280;29868;47.360;18.984;2023-02-12T10:28:16;102152.81;;;9.59;100.00
43818;BME280;29868;47.360;18.984;2023-02-12T10:30:58;102153.84;;;9.63;100.00
43818;BME280;29868;47.360;18.984;2023-02-12T10:33:29;102157.47;;;9.66;100.00
43818;BME280;29868;47.360;18.984;2023-02-12T10:36:02;102157.00;;;9.57;100.00
43818;BME280;29868;47.360;18.984;2023-02-12T10:38:33;102163.41;;;9.64;100.00
43818;BME280;29868;47.360;18.984;2023-02-12T10:41:00;102163.44;;;9.83;100.00
43818;BME280;29868;47.360;18.984;2023-02-12T10:43:27;102169.81;;;10.08;100.00
43818;BME280;29868;47.360;18.984;2023-02-12T10:45:53;102158.69;;;9.92;100.00
43818;BME280;29868;47.360;18.984;2023-02-12T10:48:26;102150.13;;;10.13;100.00
43818;BME280;29868;47.360;18.984;2023-02-12T10:53:39;102154.28;;;10.46;100.00
43818;BME280;29868;47.360;18.984;2023-02-12T10:56:09;102155.03;;;10.44;100.00
43818;BME280;29868;47.360;18.984;2023-02-12T10:58:41;102145.28;;;10.38;100.00
43818;BME280;29868;47.360;18.984;2023-02-12T11:01:19;102149.59;;;10.20;100.00
43818;BME280;29868;47.360;18.984;2023-02-12T11:03:46;102145.28;;;10.38;100.00
43818;BME280;29868;47.360;18.984;2023-02-12T11:06:21;102142.47;;;10.53;100.00
43818;BME280;29868;47.360;18.984;2023-02-12T11:08:47;102145.38;;;10.80;100.00
43818;BME280;29868;47.360;18.984;2023-02-12T11:11:19;102148.19;;;10.85;100.00
43818;BME280;29868;47.360;18.984;2023-02-12T11:13:58;102152.13;;;10.96;100.00
43818;BME280;29868;47.360;18.984;2023-02-12T11:16:33;102142.34;;;10.90;100.00
43818;BME280;29868;47.360;18.984;2023-02-12T11:19:07;102154.16;;;11.03;100.00
43818;BME280;29868;47.360;18.984;2023-02-12T11:21:35;102147.94;;;11.00;100.00
43818;BME280;29868;47.360;18.984;2023-02-12T11:24:21;102154.03;;;11.21;100.00
43818;BME280;29868;47.360;18.984;2023-02-12T11:29:44;102150.34;;;11.58;100.00
43818;BME280;29868;47.360;18.984;2023-02-12T11:32:17;102161.59;;;11.79;100.00
43818;BME280;29868;47.360;18.984;2023-02-12T11:34:43;102158.53;;;11.67;100.00
43818;BME280;29868;47.360;18.984;2023-02-12T11:37:18;102157.53;;;12.08;100.00
43818;BME280;29868;47.360;18.984;2023-02-12T11:39:49;102156.53;;;11.82;100.00
43818;BME280;29868;47.360;18.984;2023-02-12T11:42:21;102158.59;;;12.36;100.00
43818;BME280;29868;47.360;18.984;2023-02-12T11:44:56;102155.31;;;12.17;100.00
43818;BME280;29868;47.360;18.984;2023-02-12T11:47:28;102153.72;;;11.99;100.00
43818;BME280;29868;47.360;18.984;2023-02-12T11:50:23;102147.06;;;12.07;100.00
43818;BME280;29868;47.360;18.984;2023-02-12T11:52:51;102149.66;;;12.29;100.00
43818;BME280;29868;47.360;18.984;2023-02-12T11:55:29;102148.50;;;12.21;100.00
43818;BME280;29868;47.360;18.984;2023-02-12T11:58:03;102155.25;;;12.16;99.28
43818;BME280;29868;47.360;18.984;2023-02-12T12:00:36;102155.59;;;12.03;99.34
43818;BME280;29868;47.360;18.984;2023-02-12T12:03:12;102143.72;;;11.66;99.10
43818;BME280;29868;47.360;18.984;2023-02-12T12:05:44;102160.47;;;11.73;98.51
43818;BME280;29868;47.360;18.984;2023-02-12T12:10:47;102149.44;;;11.36;92.65
43818;BME280;29868;47.360;18.984;2023-02-12T12:13:18;102146.81;;;11.14;94.28
43818;BME280;29868;47.360;18.984;2023-02-12T12:15:50;102144.69;;;11.05;93.07
43818;BME280;29868;47.360;18.984;2023-02-12T12:21:42;102135.72;;;11.18;90.67
43818;BME280;29868;47.360;18.984;2023-02-12T12:26:54;102128.00;;;11.21;86.90
43818;BME280;29868;47.360;18.984;2023-02-12T12:32:05;102131.09;;;11.11;85.63
43818;BME280;29868;47.360;18.984;2023-02-12T12:34:31;102124.09;;;11.52;84.56
43818;BME280;29868;47.360;18.984;2023-02-12T12:43:10;102132.66;;;11.72;83.47
43818;BME280;29868;47.360;18.984;2023-02-12T12:49:10;102126.72;;;11.53;82.44
43818;BME280;29868;47.360;18.984;2023-02-12T12:51:41;102130.16;;;11.52;82.81
43818;BME280;29868;47.360;18.984;2023-02-12T12:56:57;102129.41;;;11.13;85.13
43818;BME280;29868;47.360;18.984;2023-02-12T12:59:41;102131.44;;;11.20;84.99
43818;BME280;29868;47.360;18.984;2023-02-12T13:10:24;102134.09;;;10.60;88.05
43818;BME280;29868;47.360;18.984;2023-02-12T13:18:16;102133.63;;;10.30;86.72
43818;BME280;29868;47.360;18.984;2023-02-12T13:20:46;102141.94;;;10.23;87.78
43818;BME280;29868;47.360;18.984;2023-02-12T13:23:16;102138.91;;;10.14;87.90
43818;BME280;29868;47.360;18.984;2023-02-12T13:29:17;102124.06;;;10.29;84.11
43818;BME280;29868;47.360;18.984;2023-02-12T13:31:48;102128.97;;;10.23;83.26
43818;BME280;29868;47.360;18.984;2023-02-12T13:34:16;102128.66;;;10.35;82.00
43818;BME280;29868;47.360;18.984;2023-02-12T13:36:42;102129.47;;;10.34;81.81
43818;BME280;29868;47.360;18.984;2023-02-12T13:39:24;102136.63;;;10.20;81.29
43818;BME280;29868;47.360;18.984;2023-02-12T13:42:34;102132.44;;;10.23;81.50
43818;BME280;29868;47.360;18.984;2023-02-12T13:45:06;102129.28;;;10.11;81.57
43818;BME280;29868;47.360;18.984;2023-02-12T13:50:44;102129.34;;;10.13;81.71
43818;BME280;29868;47.360;18.984;2023-02-12T13:55:55;102133.84;;;9.97;82.43
43818;BME280;29868;47.360;18.984;2023-02-12T14:01:09;102154.41;;;9.75;84.81
43818;BME280;29868;47.360;18.984;2023-02-12T14:03:36;102158.78;;;9.76;84.89
43818;BME280;29868;47.360;18.984;2023-02-12T14:06:20;102158.56;;;9.71;84.29
43818;BME280;29868;47.360;18.984;2023-02-12T14:08:50;102159.59;;;9.57;86.15
43818;BME280;29868;47.360;18.984;2023-02-12T14:11:19;102159.69;;;9.59;87.66
43818;BME280;29868;47.360;18.984;2023-02-12T14:14:00;102156.88;;;9.36;90.11
43818;BME280;29868;47.360;18.984;2023-02-12T14:21:58;102160.44;;;9.04;90.04
43818;BME280;29868;47.360;18.984;2023-02-12T14:27:06;102165.44;;;8.83;90.95
43818;BME280;29868;47.360;18.984;2023-02-12T14:30:00;102164.44;;;8.81;92.45
43818;BME280;29868;47.360;18.984;2023-02-12T14:35:40;102170.28;;;8.77;92.54
43818;BME280;29868;47.360;18.984;2023-02-12T14:40:45;102171.88;;;8.75;93.62
43818;BME280;29868;47.360;18.984;2023-02-12T14:43:35;102179.19;;;8.66;94.53
43818;BME280;29868;47.360;18.984;2023-02-12T14:51:42;102183.50;;;8.49;95.54
43818;BME280;29868;47.360;18.984;2023-02-12T14:54:20;102170.56;;;8.49;95.95